Time;durP1;ratioP1;P1;durP2;ratioP2;P2;SDS_P1;SDS_P2;PMS_P1;PMS_P2;Temp;Humidity;BMP_temperature;BMP_pressure;BME280_temperature;BME280_humidity;BME280_pressure;Samples;Min_cycle;Max_cycle;Signal;HPM_P1;HPM_P2
2021/07/10 00:02:23;;;;;;;5.63;3.20;;;15.80;99.90;;;;;;5014772;28;20054;-80
2021/07/10 00:04:50;;;;;;;5.97;3.40;;;15.70;99.90;;;;;;5016074;28;20506;-80
2021/07/10 00:07:17;;;;;;;5.90;3.50;;;15.70;99.90;;;;;;5015839;28;20148;-80
2021/07/10 00:09:44;;;;;;;5.18;3.50;;;15.70;99.90;;;;;;5015299;28;20060;-80
2021/07/10 00:12:11;;;;;;;5.90;3.50;;;15.80;99.90;;;;;;5015893;28;20415;-80
2021/07/10 00:14:38;;;;;;;7.25;3.55;;;15.70;99.90;;;;;;5015803;28;20480;-78
2021/07/10 00:17:05;;;;;;;6.57;3.78;;;15.80;99.90;;;;;;5014430;28;20056;-80
2021/07/10 00:19:34;;;;;;;5.00;3.20;;;15.80;99.90;;;;;;5016080;28;20074;-79
2021/07/10 00:22:01;;;;;;;5.07;3.42;;;15.80;99.90;;;;;;5016018;28;20050;-81
2021/07/10 00:24:30;;;;;;;5.57;3.30;;;15.80;99.90;;;;;;5008458;28;20133;-80
2021/07/10 00:26:58;;;;;;;5.80;3.35;;;15.80;99.90;;;;;;5015260;28;20046;-80
2021/07/10 00:29:25;;;;;;;9.02;3.80;;;15.90;99.90;;;;;;5014759;28;20403;-80
2021/07/10 00:31:52;;;;;;;6.45;3.75;;;15.90;99.90;;;;;;5014250;28;20052;-81
2021/07/10 00:34:19;;;;;;;5.57;3.45;;;15.90;99.90;;;;;;5014819;28;20129;-80
2021/07/10 00:36:48;;;;;;;5.30;3.35;;;15.90;99.90;;;;;;5014789;28;20133;-81
2021/07/10 00:39:15;;;;;;;5.85;3.50;;;15.90;99.90;;;;;;5015276;28;20128;-79
2021/07/10 00:41:42;;;;;;;5.35;3.70;;;16.00;99.90;;;;;;5014806;28;20053;-78
2021/07/10 00:44:09;;;;;;;8.00;3.97;;;15.90;99.90;;;;;;5014857;28;20124;-80
2021/07/10 00:46:36;;;;;;;7.07;3.45;;;16.00;99.90;;;;;;5012102;28;20133;-79
2021/07/10 00:49:03;;;;;;;5.95;3.90;;;15.90;99.90;;;;;;5014551;28;20046;-80
2021/07/10 00:51:30;;;;;;;5.03;3.33;;;15.90;99.90;;;;;;5007328;28;20042;-78
2021/07/10 00:53:59;;;;;;;4.90;3.40;;;15.80;99.90;;;;;;5014684;28;20138;-80
2021/07/10 00:56:26;;;;;;;6.25;4.07;;;15.70;99.90;;;;;;5014292;28;20049;-81
2021/07/10 00:58:54;;;;;;;5.18;3.45;;;15.70;99.90;;;;;;5015205;28;20467;-80
2021/07/10 01:01:22;;;;;;;6.07;3.40;;;15.70;99.90;;;;;;5006887;28;20141;-80
2021/07/10 01:03:49;;;;;;;5.80;3.47;;;15.70;99.90;;;;;;5013334;28;20077;-81
2021/07/10 01:06:16;;;;;;;5.90;3.45;;;15.60;99.90;;;;;;5014438;28;20144;-79
2021/07/10 01:08:46;;;;;;;5.65;3.35;;;15.60;99.90;;;;;;5014326;28;20049;-79
2021/07/10 01:11:15;;;;;;;5.35;3.38;;;15.60;99.90;;;;;;5014120;28;20046;-80
2021/07/10 01:13:42;;;;;;;4.63;3.20;;;15.60;99.90;;;;;;5014196;28;20054;-80
2021/07/10 01:16:09;;;;;;;6.40;3.40;;;15.60;99.90;;;;;;5013194;28;20060;-81
2021/07/10 01:18:36;;;;;;;6.65;4.00;;;15.60;99.90;;;;;;5014382;28;20134;-79
2021/07/10 01:21:05;;;;;;;5.43;3.40;;;15.60;99.90;;;;;;5013400;28;20054;-79
2021/07/10 01:23:32;;;;;;;5.60;3.92;;;15.50;99.90;;;;;;5014057;28;20129;-77
2021/07/10 01:25:59;;;;;;;5.43;3.70;;;15.50;99.90;;;;;;5014035;28;20058;-81
2021/07/10 01:28:26;;;;;;;6.50;3.83;;;15.40;99.90;;;;;;5013758;28;20060;-81
2021/07/10 01:30:53;;;;;;;6.07;3.53;;;15.40;99.90;;;;;;5013910;28;20048;-80
2021/07/10 01:33:20;;;;;;;5.80;3.55;;;15.30;99.90;;;;;;5013627;28;20130;-80
2021/07/10 01:35:47;;;;;;;5.80;3.72;;;15.20;99.90;;;;;;5013314;28;20136;-79
2021/07/10 01:38:16;;;;;;;7.20;3.92;;;15.20;99.90;;;;;;5013524;28;20506;-81
2021/07/10 01:40:44;;;;;;;5.18;3.58;;;15.10;99.90;;;;;;5013647;28;20141;-80
2021/07/10 01:43:12;;;;;;;5.05;3.50;;;15.00;99.90;;;;;;5013644;28;20046;-81
2021/07/10 01:45:40;;;;;;;4.30;2.97;;;14.90;99.90;;;;;;5013848;28;20058;-80
2021/07/10 01:48:10;;;;;;;5.18;3.63;;;14.90;99.90;;;;;;5013756;28;20444;-80
2021/07/10 01:50:38;;;;;;;8.50;3.70;;;14.90;99.90;;;;;;5010616;28;20050;-80
2021/07/10 01:53:05;;;;;;;5.32;3.35;;;14.90;99.90;;;;;;5013412;28;20222;-81
2021/07/10 01:55:34;;;;;;;7.28;3.45;;;14.90;99.90;;;;;;5013470;28;20138;-80
2021/07/10 01:58:02;;;;;;;7.03;3.50;;;14.90;99.90;;;;;;5012557;28;20472;-78
2021/07/10 02:00:32;;;;;;;6.00;3.30;;;15.00;99.90;;;;;;5007717;28;20454;-81
2021/07/10 02:02:59;;;;;;;5.53;3.90;;;15.00;99.90;;;;;;5012506;28;20415;-79
2021/07/10 02:05:28;;;;;;;7.00;4.45;;;15.00;99.90;;;;;;5008289;28;20042;-78
2021/07/10 02:07:58;;;;;;;6.15;3.70;;;15.00;99.90;;;;;;5013070;28;20131;-81
2021/07/10 02:10:27;;;;;;;7.93;4.65;;;15.00;99.90;;;;;;5013782;28;20085;-80
2021/07/10 02:12:59;;;;;;;7.80;4.22;;;15.00;99.90;;;;;;5013122;28;20133;-81
2021/07/10 02:15:27;;;;;;;4.78;3.60;;;14.90;99.90;;;;;;5013117;28;20056;-79
2021/07/10 02:17:55;;;;;;;7.05;3.75;;;14.80;99.90;;;;;;5013339;28;20137;-80
2021/07/10 02:20:26;;;;;;;5.50;3.60;;;14.70;99.90;;;;;;5006016;28;21844;-78
2021/07/10 02:22:53;;;;;;;5.60;3.30;;;14.70;99.90;;;;;;5013095;28;20054;-80
2021/07/10 02:25:23;;;;;;;5.75;3.55;;;14.70;99.90;;;;;;5013287;28;20042;-80
2021/07/10 02:27:52;;;;;;;5.07;3.25;;;14.70;99.90;;;;;;5013522;28;20136;-80
2021/07/10 02:30:24;;;;;;;6.10;3.70;;;14.70;99.90;;;;;;5006430;28;20136;-77
2021/07/10 02:32:51;;;;;;;5.53;3.85;;;14.80;99.90;;;;;;5013171;28;20447;-80
2021/07/10 02:35:18;;;;;;;6.82;3.50;;;14.80;99.90;;;;;;5012377;28;20077;-79
2021/07/10 02:37:48;;;;;;;6.55;3.42;;;14.80;99.90;;;;;;5012958;28;20045;-79
2021/07/10 02:40:18;;;;;;;5.57;3.42;;;14.80;99.90;;;;;;5012888;28;20045;-80
2021/07/10 02:42:46;;;;;;;5.35;3.40;;;14.80;99.90;;;;;;5012971;28;20057;-79
2021/07/10 02:45:15;;;;;;;8.00;4.00;;;14.80;99.90;;;;;;5027911;28;20479;-80
2021/07/10 02:47:43;;;;;;;4.68;3.30;;;14.80;99.90;;;;;;5012857;28;20046;-83
2021/07/10 02:50:15;;;;;;;6.40;3.40;;;14.80;99.90;;;;;;5004860;28;20050;-80
2021/07/10 02:52:42;;;;;;;5.93;3.20;;;14.80;99.90;;;;;;5012536;28;20041;-80
2021/07/10 02:55:11;;;;;;;5.43;3.40;;;14.70;99.90;;;;;;5006036;28;20518;-80
2021/07/10 02:57:39;;;;;;;8.45;3.65;;;14.70;99.90;;;;;;5012756;28;20129;-79
2021/07/10 03:00:10;;;;;;;6.10;3.58;;;14.60;99.90;;;;;;5012462;28;20144;-80
2021/07/10 03:02:37;;;;;;;4.47;3.10;;;14.60;99.90;;;;;;5011906;28;20553;-80
2021/07/10 03:05:08;;;;;;;6.15;3.58;;;14.60;99.90;;;;;;5010013;28;20042;-81
2021/07/10 03:07:35;;;;;;;5.30;3.63;;;14.60;99.90;;;;;;4995556;28;20076;-79
2021/07/10 03:10:04;;;;;;;4.90;3.33;;;14.60;99.90;;;;;;5007902;28;20054;-80
2021/07/10 03:12:30;;;;;;;6.03;3.47;;;14.50;99.90;;;;;;5001475;28;20389;-79
2021/07/10 03:14:57;;;;;;;7.00;3.63;;;14.50;99.90;;;;;;5009540;28;20054;-79
2021/07/10 03:17:25;;;;;;;4.90;3.33;;;14.50;99.90;;;;;;5009458;28;20048;-80
2021/07/10 03:19:52;;;;;;;5.32;3.35;;;14.40;99.90;;;;;;5009103;28;20546;-80
2021/07/10 03:22:20;;;;;;;5.00;3.30;;;14.40;99.90;;;;;;5007848;28;20443;-80
2021/07/10 03:24:47;;;;;;;5.18;3.47;;;14.30;99.90;;;;;;5009119;28;20586;-80
2021/07/10 03:27:15;;;;;;;5.05;3.22;;;14.30;99.90;;;;;;5010505;28;20076;-81
2021/07/10 03:29:42;;;;;;;4.47;2.90;;;14.30;99.90;;;;;;5013014;28;20385;-80
2021/07/10 03:32:10;;;;;;;4.50;2.97;;;14.30;99.90;;;;;;5012645;28;20157;-79
2021/07/10 03:34:37;;;;;;;6.13;3.40;;;14.30;99.90;;;;;;5012834;28;20045;-80
2021/07/10 03:37:04;;;;;;;4.72;3.15;;;14.30;99.90;;;;;;5009430;28;20052;-77
2021/07/10 03:39:33;;;;;;;5.00;3.63;;;14.30;99.90;;;;;;5012813;28;20074;-78
2021/07/10 03:42:00;;;;;;;5.90;3.70;;;14.40;99.90;;;;;;5012606;28;20050;-81
2021/07/10 03:44:27;;;;;;;5.88;3.50;;;14.40;99.90;;;;;;5012526;28;20049;-81
2021/07/10 03:46:54;;;;;;;5.60;3.97;;;14.40;99.90;;;;;;5012922;28;20053;-81
2021/07/10 03:49:21;;;;;;;6.40;3.50;;;14.30;99.90;;;;;;5012471;28;20756;-80
2021/07/10 03:51:48;;;;;;;6.60;3.63;;;14.20;99.90;;;;;;5011876;28;20041;-80
2021/07/10 03:54:15;;;;;;;5.20;3.53;;;14.20;99.90;;;;;;5012015;28;20138;-80
2021/07/10 03:56:43;;;;;;;5.65;3.35;;;14.10;99.90;;;;;;5012405;28;20045;-81
2021/07/10 03:59:10;;;;;;;5.32;2.90;;;14.10;99.90;;;;;;5011945;28;20518;-78
2021/07/10 04:01:41;;;;;;;4.85;3.20;;;14.10;99.90;;;;;;5012774;28;20137;-80
2021/07/10 04:04:08;;;;;;;4.90;3.38;;;14.10;99.90;;;;;;5015469;28;20125;-81
2021/07/10 04:06:35;;;;;;;6.32;3.28;;;14.20;99.90;;;;;;5015217;28;20133;-79
2021/07/10 04:09:03;;;;;;;6.88;4.15;;;14.20;99.90;;;;;;5015604;28;20053;-81
2021/07/10 04:11:30;;;;;;;5.65;3.67;;;14.30;99.90;;;;;;5007837;28;20052;-80
2021/07/10 04:13:59;;;;;;;4.80;3.45;;;14.20;99.90;;;;;;5015465;28;20046;-81
2021/07/10 04:16:26;;;;;;;5.30;3.85;;;14.30;99.90;;;;;;5012635;28;20137;-79
2021/07/10 04:18:53;;;;;;;6.43;3.65;;;14.30;99.90;;;;;;5009338;28;20129;-80
2021/07/10 04:21:20;;;;;;;7.75;4.10;;;14.40;99.90;;;;;;5014604;28;20499;-79
2021/07/10 04:23:47;;;;;;;7.32;4.00;;;14.30;99.90;;;;;;5015476;28;20133;-79
2021/07/10 04:26:14;;;;;;;6.68;4.30;;;14.30;99.90;;;;;;5015866;28;20133;-81
2021/07/10 04:28:41;;;;;;;7.88;4.47;;;14.30;99.90;;;;;;5015253;28;20048;-80
2021/07/10 04:31:09;;;;;;;8.20;4.57;;;14.30;99.90;;;;;;5015249;28;20136;-79
2021/07/10 04:33:37;;;;;;;7.80;4.50;;;14.30;99.90;;;;;;5014800;28;20046;-80
2021/07/10 04:36:04;;;;;;;8.18;4.53;;;14.20;99.90;;;;;;5015683;28;20104;-77
2021/07/10 04:38:31;;;;;;;6.88;4.53;;;14.10;99.90;;;;;;5016150;28;20048;-80
2021/07/10 04:40:59;;;;;;;6.53;4.72;;;14.00;99.90;;;;;;5015259;28;20050;-78
2021/07/10 04:43:26;;;;;;;7.00;4.25;;;14.00;99.90;;;;;;5014643;28;20530;-80
2021/07/10 04:45:53;;;;;;;5.80;4.03;;;14.00;99.90;;;;;;5014960;28;20042;-78
2021/07/10 04:48:21;;;;;;;6.75;4.40;;;13.90;99.90;;;;;;5012598;28;20056;-80
2021/07/10 04:50:48;;;;;;;8.48;4.40;;;13.90;99.90;;;;;;5015180;28;20050;-79
2021/07/10 04:53:16;;;;;;;7.07;4.35;;;13.90;99.90;;;;;;5014676;28;20056;-80
2021/07/10 04:55:43;;;;;;;6.72;4.30;;;13.90;99.90;;;;;;5014995;28;20128;-78
2021/07/10 04:58:10;;;;;;;5.20;3.60;;;13.90;99.90;;;;;;5014951;28;20137;-80
2021/07/10 05:00:37;;;;;;;5.47;3.80;;;13.90;99.90;;;;;;5014525;28;20140;-77
2021/07/10 05:03:05;;;;;;;5.65;3.65;;;14.00;99.90;;;;;;5013443;28;20587;-80
2021/07/10 05:05:34;;;;;;;7.90;4.03;;;14.10;99.90;;;;;;5015221;28;20104;-78
2021/07/10 05:08:02;;;;;;;7.53;4.30;;;14.10;99.90;;;;;;5012510;28;20056;-77
2021/07/10 05:10:29;;;;;;;5.28;3.80;;;14.10;99.90;;;;;;5003775;28;20065;-79
2021/07/10 05:12:56;;;;;;;5.78;3.55;;;14.20;99.90;;;;;;5009291;28;20049;-79
2021/07/10 05:15:23;;;;;;;5.10;3.65;;;14.20;99.90;;;;;;5014038;28;20518;-78
2021/07/10 05:17:50;;;;;;;5.20;3.50;;;14.30;99.90;;;;;;5013679;28;20052;-79
2021/07/10 05:20:18;;;;;;;5.80;3.83;;;14.40;99.90;;;;;;5013610;28;20510;-79
2021/07/10 05:22:46;;;;;;;5.38;3.67;;;14.40;99.90;;;;;;5013641;28;20049;-80
2021/07/10 05:25:14;;;;;;;5.88;3.33;;;14.50;99.90;;;;;;5013902;28;20488;-80
2021/07/10 05:27:41;;;;;;;5.25;3.65;;;14.60;99.90;;;;;;5010439;28;20045;-79
2021/07/10 05:30:12;;;;;;;5.90;4.35;;;14.70;99.90;;;;;;5013575;28;20377;-77
2021/07/10 05:32:39;;;;;;;4.68;3.30;;;14.70;99.90;;;;;;5013807;28;20049;-78
2021/07/10 05:35:09;;;;;;;5.20;3.75;;;14.80;99.90;;;;;;5013516;28;20483;-78
2021/07/10 05:37:36;;;;;;;5.70;4.10;;;14.90;99.90;;;;;;5012312;28;20046;-80
2021/07/10 05:40:06;;;;;;;5.82;4.20;;;14.90;99.90;;;;;;5006407;28;20129;-79
2021/07/10 05:42:34;;;;;;;5.03;3.65;;;15.00;99.90;;;;;;5006756;28;20483;-80
2021/07/10 05:45:01;;;;;;;6.45;4.10;;;15.10;99.90;;;;;;5013291;28;20128;-80
2021/07/10 05:47:28;;;;;;;6.75;4.60;;;15.10;99.90;;;;;;5007190;28;20447;-80
2021/07/10 05:49:55;;;;;;;6.13;4.30;;;15.10;99.90;;;;;;5013460;28;20129;-76
2021/07/10 05:52:22;;;;;;;7.43;4.25;;;15.20;99.90;;;;;;5013307;28;20141;-80
2021/07/10 05:54:49;;;;;;;6.50;4.82;;;15.20;99.90;;;;;;5013596;28;20144;-79
2021/07/10 05:57:17;;;;;;;6.25;4.80;;;15.30;99.90;;;;;;5013376;28;20049;-78
2021/07/10 05:59:44;;;;;;;6.32;4.57;;;15.30;99.90;;;;;;5012453;28;20068;-79
2021/07/10 06:02:11;;;;;;;5.65;4.10;;;15.30;99.90;;;;;;5012154;28;20049;-78
2021/07/10 06:04:38;;;;;;;6.15;4.30;;;15.30;99.90;;;;;;5013305;28;20552;-79
2021/07/10 06:07:07;;;;;;;6.30;4.18;;;15.40;99.90;;;;;;5013445;28;20042;-80
2021/07/10 06:09:34;;;;;;;6.32;4.45;;;15.50;99.90;;;;;;5006041;28;20487;-81
2021/07/10 06:12:02;;;;;;;5.40;3.88;;;15.50;99.90;;;;;;5013810;28;20133;-80
2021/07/10 06:14:30;;;;;;;5.80;4.20;;;15.60;99.90;;;;;;5012078;28;20511;-78
2021/07/10 06:16:58;;;;;;;5.80;3.90;;;15.60;99.90;;;;;;5013266;28;20129;-79
2021/07/10 06:19:26;;;;;;;5.57;3.60;;;15.70;99.90;;;;;;5006566;28;20050;-78
2021/07/10 06:21:53;;;;;;;8.10;3.83;;;15.70;99.90;;;;;;5013459;28;20509;-78
2021/07/10 06:24:20;;;;;;;5.82;3.85;;;15.80;99.90;;;;;;5013181;28;20053;-78
2021/07/10 06:26:47;;;;;;;5.85;3.75;;;15.90;99.90;;;;;;5013668;28;20045;-82
2021/07/10 06:29:14;;;;;;;6.90;4.30;;;16.00;99.90;;;;;;5012956;28;20137;-79
2021/07/10 06:31:43;;;;;;;6.55;4.15;;;16.00;99.90;;;;;;5013692;28;20162;-80
2021/07/10 06:34:10;;;;;;;5.93;4.35;;;16.10;99.90;;;;;;5009111;28;20042;-80
2021/07/10 06:36:38;;;;;;;5.13;3.97;;;16.20;99.90;;;;;;5008329;28;20045;-79
2021/07/10 06:39:05;;;;;;;6.38;4.40;;;16.20;99.90;;;;;;5013617;28;20467;-79
2021/07/10 06:41:32;;;;;;;6.25;4.45;;;16.30;99.90;;;;;;5013482;28;20132;-78
2021/07/10 06:44:00;;;;;;;7.88;4.45;;;16.30;99.90;;;;;;5013455;28;20089;-79
2021/07/10 06:46:27;;;;;;;5.25;3.95;;;16.40;99.90;;;;;;5013326;28;20551;-79
2021/07/10 06:48:55;;;;;;;6.28;4.20;;;16.40;99.90;;;;;;5013227;28;20046;-80
2021/07/10 06:51:23;;;;;;;7.03;4.22;;;16.50;99.90;;;;;;5013483;28;20084;-80
2021/07/10 06:53:50;;;;;;;6.95;4.50;;;16.50;99.90;;;;;;5013505;28;20461;-81
2021/07/10 06:56:17;;;;;;;6.68;4.80;;;16.60;99.90;;;;;;5013536;28;20586;-78
2021/07/10 06:58:44;;;;;;;5.47;4.00;;;16.60;99.90;;;;;;5013441;28;20462;-81
2021/07/10 07:01:11;;;;;;;4.93;3.83;;;16.70;99.90;;;;;;5013217;28;20049;-80
2021/07/10 07:03:38;;;;;;;8.77;5.60;;;16.70;99.90;;;;;;5017493;28;20393;-79
2021/07/10 07:06:12;;;;;;;6.85;4.95;;;16.70;99.90;;;;;;5017086;28;20132;-80
2021/07/10 07:08:39;;;;;;;6.40;4.68;;;16.80;99.90;;;;;;5032055;28;20144;-80
2021/07/10 07:11:06;;;;;;;7.22;4.68;;;16.80;99.90;;;;;;5036912;28;20046;-79
2021/07/10 07:13:33;;;;;;;6.93;4.80;;;16.90;99.90;;;;;;5036866;28;20051;-79
2021/07/10 07:16:03;;;;;;;7.38;5.20;;;16.90;99.90;;;;;;5036816;28;20495;-78
2021/07/10 07:18:30;;;;;;;7.07;5.20;;;17.00;99.90;;;;;;5037316;28;20087;-80
2021/07/10 07:20:57;;;;;;;6.97;5.10;;;17.00;99.90;;;;;;5036986;28;20513;-78
2021/07/10 07:23:26;;;;;;;7.70;5.57;;;17.10;99.90;;;;;;5037552;28;20132;-79
2021/07/10 07:25:53;;;;;;;6.85;4.88;;;17.10;99.90;;;;;;5036898;28;20136;-81
2021/07/10 07:28:20;;;;;;;6.68;5.45;;;17.20;99.90;;;;;;5036613;28;20464;-80
2021/07/10 07:30:47;;;;;;;7.50;5.28;;;17.30;99.90;;;;;;5036618;28;20049;-81
2021/07/10 07:33:14;;;;;;;7.15;5.45;;;17.30;99.90;;;;;;5036579;28;20045;-78
2021/07/10 07:35:41;;;;;;;8.93;6.20;;;17.40;99.90;;;;;;5036537;28;20059;-79
2021/07/10 07:38:08;;;;;;;7.63;5.75;;;17.40;99.90;;;;;;5036475;28;20042;-80
2021/07/10 07:40:37;;;;;;;8.45;5.20;;;17.50;99.90;;;;;;5036255;28;20487;-80
2021/07/10 07:43:04;;;;;;;7.32;5.45;;;17.50;99.90;;;;;;5035858;28;20136;-79
2021/07/10 07:45:31;;;;;;;6.65;4.90;;;17.60;99.90;;;;;;5036123;28;20051;-80
2021/07/10 07:47:58;;;;;;;6.40;4.88;;;17.70;99.90;;;;;;5036060;28;20049;-80
2021/07/10 07:50:25;;;;;;;8.95;5.63;;;17.80;99.90;;;;;;5036056;28;20055;-80
2021/07/10 07:52:52;;;;;;;8.13;5.18;;;17.80;99.90;;;;;;5036020;28;20060;-81
2021/07/10 07:55:20;;;;;;;7.20;4.95;;;17.90;99.90;;;;;;5036202;28;20084;-80
2021/07/10 07:57:48;;;;;;;6.88;5.07;;;18.00;99.90;;;;;;5035958;28;20077;-79
2021/07/10 08:00:20;;;;;;;5.97;4.50;;;18.00;99.90;;;;;;5036215;28;20080;-80
2021/07/10 08:02:47;;;;;;;7.55;4.93;;;18.10;99.90;;;;;;5035961;28;20137;-78
2021/07/10 08:05:16;;;;;;;5.85;4.45;;;18.20;99.90;;;;;;5036033;28;20133;-80
2021/07/10 08:07:43;;;;;;;9.20;5.47;;;18.20;99.90;;;;;;5035871;28;20045;-80
2021/07/10 08:10:13;;;;;;;6.28;4.68;;;18.30;99.90;;;;;;5035842;28;20129;-82
2021/07/10 08:12:41;;;;;;;6.70;4.82;;;18.40;99.90;;;;;;5033426;28;20557;-78
2021/07/10 08:15:13;;;;;;;7.90;5.07;;;18.50;99.90;;;;;;5012055;28;20128;-79
2021/07/10 08:17:40;;;;;;;7.97;4.63;;;18.50;99.90;;;;;;5015082;28;20092;-78
2021/07/10 08:20:08;;;;;;;6.40;4.43;;;18.70;99.90;;;;;;5015195;28;20128;-78
2021/07/10 08:22:35;;;;;;;5.97;4.32;;;18.70;99.90;;;;;;5015422;28;20457;-76
2021/07/10 08:25:04;;;;;;;6.03;4.22;;;18.80;99.90;;;;;;5014947;28;20410;-79
2021/07/10 08:27:31;;;;;;;6.28;4.50;;;18.90;99.90;;;;;;5007866;28;20049;-80
2021/07/10 08:29:58;;;;;;;6.50;4.88;;;19.00;99.90;;;;;;5015349;28;20136;-80
2021/07/10 08:32:27;;;;;;;6.40;4.95;;;19.10;99.90;;;;;;5014958;28;20619;-79
2021/07/10 08:34:54;;;;;;;7.20;4.13;;;19.20;99.90;;;;;;5015288;28;20060;-79
2021/07/10 08:37:21;;;;;;;5.57;3.70;;;19.30;99.90;;;;;;5013837;28;20060;-80
2021/07/10 08:39:49;;;;;;;5.03;3.63;;;19.30;99.90;;;;;;5015230;28;20137;-82
2021/07/10 08:42:16;;;;;;;5.43;3.50;;;19.40;99.90;;;;;;5012606;28;20511;-78
2021/07/10 08:44:44;;;;;;;5.57;3.80;;;19.60;99.90;;;;;;5015860;28;20052;-79
2021/07/10 08:47:14;;;;;;;6.32;4.22;;;19.70;99.90;;;;;;5015174;28;20137;-77
2021/07/10 08:49:44;;;;;;;6.00;4.20;;;19.80;99.90;;;;;;5015194;28;20063;-77
2021/07/10 08:52:11;;;;;;;5.50;3.45;;;19.80;99.90;;;;;;5010654;28;20084;-76
2021/07/10 08:54:39;;;;;;;5.38;3.63;;;20.00;99.90;;;;;;5012458;28;20133;-78
2021/07/10 08:57:08;;;;;;;6.20;3.55;;;20.00;99.90;;;;;;5014479;28;20129;-78
2021/07/10 08:59:37;;;;;;;6.60;3.70;;;20.10;99.90;;;;;;5014722;28;20506;-76
2021/07/10 09:02:05;;;;;;;5.22;3.53;;;20.20;99.70;;;;;;5014574;28;20050;-78
2021/07/10 09:04:32;;;;;;;5.53;3.63;;;20.20;99.50;;;;;;5007227;28;20066;-82
2021/07/10 09:07:01;;;;;;;6.07;4.45;;;20.30;99.00;;;;;;5029066;28;20089;-83
2021/07/10 09:09:45;;;;;;;6.20;4.43;;;20.30;99.10;;;;;;5001966;28;20042;-82
2021/07/10 09:12:13;;;;;;;5.50;3.90;;;20.40;99.10;;;;;;5010119;28;20128;-81
2021/07/10 09:14:41;;;;;;;7.18;4.75;;;20.50;99.20;;;;;;5010553;28;20412;-81
2021/07/10 09:17:16;;;;;;;5.10;3.45;;;20.50;99.10;;;;;;5006568;28;20141;-81
2021/07/10 09:19:43;;;;;;;;;;;20.60;99.00;;;;;;5011137;28;20056;-82
2021/07/10 09:22:12;;;;;;;5.15;3.15;;;20.70;98.80;;;;;;5010155;28;20298;-80
2021/07/10 09:24:42;;;;;;;4.35;3.20;;;20.80;98.60;;;;;;5006990;28;20058;-81
2021/07/10 09:27:10;;;;;;;4.95;3.38;;;20.80;97.90;;;;;;5009844;28;20046;-83
2021/07/10 09:29:40;;;;;;;6.60;4.00;;;20.90;97.50;;;;;;5009656;28;20050;-80
2021/07/10 09:32:09;;;;;;;5.43;3.90;;;20.90;96.60;;;;;;5008304;28;20411;-79
2021/07/10 09:34:42;;;;;;;5.22;3.42;;;20.90;96.10;;;;;;5009443;28;20115;-79
2021/07/10 09:37:13;;;;;;;4.65;2.97;;;20.90;96.20;;;;;;5010920;28;20145;-81
2021/07/10 09:39:43;;;;;;;7.22;3.50;;;21.00;96.40;;;;;;5013815;28;20034;-80
2021/07/10 09:42:11;;;;;;;5.00;3.10;;;21.00;96.50;;;;;;5013039;28;20042;-80
2021/07/10 09:44:49;;;;;;;4.28;2.80;;;21.10;96.70;;;;;;5012982;28;20122;-80
2021/07/10 09:47:25;;;;;;;4.82;2.92;;;21.10;96.80;;;;;;5013432;28;20053;-79
2021/07/10 09:49:52;;;;;;;5.32;3.00;;;21.10;97.00;;;;;;5012005;28;20472;-81
2021/07/10 09:52:23;;;;;;;4.22;2.70;;;21.20;97.10;;;;;;5008837;28;20046;-80
2021/07/10 09:54:53;;;;;;;4.72;2.90;;;21.30;97.20;;;;;;5010614;28;20057;-80
2021/07/10 09:57:23;;;;;;;5.38;3.33;;;21.30;97.20;;;;;;5010035;28;20065;-80
2021/07/10 09:59:52;;;;;;;5.30;3.17;;;21.40;97.10;;;;;;5008091;28;20064;-77
2021/07/10 10:02:24;;;;;;;5.28;3.50;;;21.40;97.10;;;;;;5009962;28;20751;-79
2021/07/10 10:04:53;;;;;;;4.72;3.67;;;21.40;96.70;;;;;;5010582;28;20046;-80
2021/07/10 10:07:22;;;;;;;4.82;3.17;;;21.40;96.80;;;;;;5011656;28;20479;-82
2021/07/10 10:09:56;;;;;;;5.45;3.25;;;21.40;97.00;;;;;;5009747;28;20058;-81
2021/07/10 10:12:24;;;;;;;4.85;2.92;;;21.40;97.10;;;;;;5009062;28;20053;-80
2021/07/10 10:14:56;;;;;;;5.78;3.47;;;21.50;97.10;;;;;;5009031;28;20511;-80
2021/07/10 10:17:26;;;;;;;5.30;3.70;;;21.50;97.10;;;;;;5012643;28;20046;-79
2021/07/10 10:19:54;;;;;;;4.30;2.92;;;21.70;97.10;;;;;;5012124;28;20073;-80
2021/07/10 10:22:23;;;;;;;4.00;2.85;;;21.80;97.30;;;;;;5013097;28;20096;-79
2021/07/10 10:24:53;;;;;;;4.90;3.40;;;22.00;96.80;;;;;;5010074;28;20064;-79
2021/07/10 10:27:21;;;;;;;5.50;3.40;;;22.00;98.30;;;;;;5012624;28;20045;-78
2021/07/10 10:29:54;;;;;;;4.30;2.97;;;22.30;98.10;;;;;;5008254;28;20046;-77
2021/07/10 10:32:22;;;;;;;4.72;3.17;;;22.30;99.10;;;;;;5008810;28;20054;-79
2021/07/10 10:34:51;;;;;;;5.15;3.42;;;22.50;98.90;;;;;;5007434;28;20046;-78
2021/07/10 10:37:20;;;;;;;5.05;2.78;;;22.60;99.90;;;;;;5006032;28;20490;-78
2021/07/10 10:39:49;;;;;;;4.55;2.90;;;22.60;95.30;;;;;;5009086;28;20052;-79
2021/07/10 10:42:21;;;;;;;3.97;2.67;;;22.60;95.20;;;;;;5004369;28;20085;-81
2021/07/10 10:44:50;;;;;;;4.43;2.78;;;22.70;94.70;;;;;;5012564;28;20176;-78
2021/07/10 10:47:23;;;;;;;4.10;2.30;;;22.70;93.50;;;;;;5012460;28;20041;-78
2021/07/10 10:49:52;;;;;;;4.28;2.80;;;22.80;93.40;;;;;;5012806;28;20136;-80
2021/07/10 10:52:33;;;;;;;4.25;2.30;;;22.80;93.40;;;;;;5012367;28;20125;-79
2021/07/10 10:55:13;;;;;;;4.85;2.53;;;22.90;93.60;;;;;;5012289;28;20449;-78
2021/07/10 10:57:51;;;;;;;4.20;3.03;;;22.90;94.00;;;;;;5010761;28;20065;-81
2021/07/10 11:00:30;;;;;;;4.25;2.33;;;23.10;92.40;;;;;;5010189;28;20516;-79
2021/07/10 11:03:07;;;;;;;3.78;2.20;;;23.10;92.40;;;;;;5012696;28;20046;-78
2021/07/10 11:05:56;;;;;;;4.15;2.50;;;23.20;92.60;;;;;;5005083;28;20061;-81
2021/07/10 11:08:39;;;;;;;3.58;2.42;;;23.20;92.40;;;;;;5011579;28;20466;-80
2021/07/10 11:11:29;;;;;;;3.97;2.25;;;23.30;91.60;;;;;;5010816;28;20052;-80
2021/07/10 11:14:10;;;;;;;3.38;2.15;;;23.40;91.10;;;;;;5011928;28;20050;-78
2021/07/10 11:17:20;;;;;;;3.97;2.17;;;23.40;91.00;;;;;;5011190;28;20057;-77
2021/07/10 11:19:56;;;;;;;4.13;2.30;;;23.40;90.80;;;;;;5007418;28;20484;-78
2021/07/10 11:23:03;;;;;;;3.80;2.30;;;23.40;90.50;;;;;;5010321;28;20480;-81
2021/07/10 11:26:09;;;;;;;3.42;1.92;;;23.50;90.70;;;;;;5011372;28;20136;-78
2021/07/10 11:28:56;;;;;;;3.13;1.90;;;23.50;90.20;;;;;;5004289;28;20547;-81
2021/07/10 11:31:35;;;;;;;3.35;1.90;;;23.50;90.30;;;;;;5011923;28;20050;-78
2021/07/10 11:34:15;;;;;;;3.95;1.90;;;23.60;90.20;;;;;;5011796;28;20495;-81
2021/07/10 11:36:57;;;;;;;3.30;1.80;;;23.60;90.30;;;;;;5012145;28;20138;-79
2021/07/10 11:39:48;;;;;;;3.85;1.90;;;23.70;90.50;;;;;;5012378;28;20116;-78
2021/07/10 11:42:45;;;;;;;3.72;2.00;;;23.80;90.10;;;;;;5007891;28;20411;-78
2021/07/10 11:45:33;;;;;;;3.30;1.85;;;23.90;89.00;;;;;;5012211;28;20049;-80
2021/07/10 11:48:22;;;;;;;3.10;2.00;;;23.90;87.70;;;;;;5008811;28;20456;-80
2021/07/10 11:51:11;;;;;;;2.88;1.70;;;24.00;87.60;;;;;;5014641;28;20053;-80
2021/07/10 11:53:39;;;;;;;3.55;2.10;;;24.10;87.60;;;;;;5015517;28;20142;-81
2021/07/10 11:56:06;;;;;;;3.08;2.00;;;24.10;86.50;;;;;;5013817;28;20052;-84
2021/07/10 11:58:37;;;;;;;2.90;1.80;;;24.10;86.60;;;;;;5016118;28;20046;-86
2021/07/10 12:01:06;;;;;;;3.28;1.70;;;24.20;86.90;;;;;;5015699;28;20403;-83
2021/07/10 12:03:33;;;;;;;3.05;1.88;;;24.30;87.20;;;;;;5008623;28;20047;-83
2021/07/10 12:06:01;;;;;;;3.25;1.77;;;24.40;86.10;;;;;;5015038;28;20139;-79
2021/07/10 12:08:30;;;;;;;4.75;2.00;;;24.50;86.00;;;;;;5014771;28;20045;-77
2021/07/10 12:10:58;;;;;;;3.35;1.80;;;24.60;84.30;;;;;;5013620;28;20048;-78
2021/07/10 12:13:30;;;;;;;3.83;1.80;;;24.60;84.30;;;;;;5014876;28;20042;-80
2021/07/10 12:16:02;;;;;;;3.90;2.10;;;24.60;84.20;;;;;;5016053;28;20041;-80
2021/07/10 12:18:35;;;;;;;3.58;1.83;;;24.60;83.40;;;;;;5015391;28;20064;-80
2021/07/10 12:21:05;;;;;;;3.80;2.05;;;24.60;82.00;;;;;;5015997;28;20488;-79
2021/07/10 12:23:35;;;;;;;3.70;1.88;;;24.60;81.90;;;;;;5015903;28;20562;-78
2021/07/10 12:26:05;;;;;;;3.20;1.90;;;24.60;81.20;;;;;;5014199;28;20476;-79
2021/07/10 12:28:36;;;;;;;3.15;1.80;;;24.70;80.10;;;;;;5016093;28;20133;-79
2021/07/10 12:31:13;;;;;;;3.22;1.65;;;24.70;80.40;;;;;;5015695;28;20136;-78
2021/07/10 12:33:50;;;;;;;3.05;1.90;;;24.80;79.60;;;;;;5015346;28;20050;-79
2021/07/10 12:36:22;;;;;;;2.80;1.85;;;24.80;80.20;;;;;;5013151;28;20507;-78
2021/07/10 12:38:58;;;;;;;3.13;1.63;;;25.00;79.40;;;;;;5016230;28;20050;-79
2021/07/10 12:41:30;;;;;;;3.38;1.70;;;25.00;77.00;;;;;;5017545;28;20053;-79
2021/07/10 12:44:25;;;;;;;2.85;1.50;;;25.20;77.90;;;;;;5015436;28;20137;-78
2021/07/10 12:46:58;;;;;;;3.15;1.63;;;;;;;;;;5015678;28;20046;-79
2021/07/10 12:49:30;;;;;;;3.10;1.83;;;25.60;79.40;;;;;;5015310;28;20050;-77
2021/07/10 12:51:58;;;;;;;2.97;1.73;;;25.90;86.80;;;;;;5015107;28;20133;-80
2021/07/10 12:54:48;;;;;;;3.30;2.00;;;26.00;86.50;;;;;;5015484;28;20148;-78
2021/07/10 12:57:43;;;;;;;3.80;1.92;;;26.20;84.20;;;;;;5015313;28;20050;-79
2021/07/10 13:00:17;;;;;;;3.03;1.63;;;26.00;81.20;;;;;;5012916;28;20053;-79
2021/07/10 13:02:48;;;;;;;3.20;1.85;;;26.00;80.10;;;;;;5015237;28;20081;-79